createdAt,value
2019-02-22T00:01:02.032Z,10.90
2019-02-22T00:03:30.498Z,10.90
2019-02-22T00:05:58.948Z,10.80
2019-02-22T00:08:27.381Z,10.80
2019-02-22T00:10:55.809Z,10.70
2019-02-22T00:13:24.616Z,10.70
2019-02-22T00:15:53.046Z,10.70
2019-02-22T00:18:21.479Z,10.70
2019-02-22T00:20:49.924Z,10.70
2019-02-22T00:23:18.365Z,10.70
2019-02-22T00:25:46.810Z,10.70
2019-02-22T00:28:15.266Z,10.70
2019-02-22T00:30:43.710Z,10.60
2019-02-22T00:33:12.146Z,10.60
2019-02-22T00:35:40.612Z,10.60
2019-02-22T00:38:09.041Z,10.60
2019-02-22T00:40:37.490Z,10.60
2019-02-22T00:43:05.950Z,10.60
2019-02-22T00:45:34.411Z,10.60
2019-02-22T00:48:02.861Z,10.60
2019-02-22T00:50:31.676Z,10.60
2019-02-22T00:53:00.121Z,10.60
2019-02-22T00:55:28.578Z,10.60
2019-02-22T00:57:57.041Z,10.60
2019-02-22T01:00:25.486Z,10.60
2019-02-22T01:02:53.945Z,10.60
2019-02-22T01:05:22.777Z,10.60
2019-02-22T01:07:51.255Z,10.60
2019-02-22T01:10:30.438Z,10.60
2019-02-22T01:12:49.839Z,10.60
2019-02-22T01:15:18.282Z,10.60
2019-02-22T01:17:46.747Z,10.60
2019-02-22T01:20:15.276Z,10.60
2019-02-22T01:22:43.751Z,10.60
2019-02-22T01:25:12.196Z,10.50
2019-02-22T01:27:40.638Z,10.50
2019-02-22T01:30:10.748Z,10.50
2019-02-22T01:32:39.526Z,10.50
2019-02-22T01:35:07.993Z,10.60
2019-02-22T01:37:36.422Z,10.60
2019-02-22T01:40:07.909Z,10.50
2019-02-22T01:42:36.356Z,10.50
2019-02-22T01:45:05.481Z,10.50
2019-02-22T01:47:34.177Z,10.40
2019-02-22T01:50:02.629Z,10.40
2019-02-22T01:52:31.068Z,10.40
2019-02-22T01:54:59.836Z,10.40
2019-02-22T01:57:28.273Z,10.40
2019-02-22T01:59:57.090Z,10.40
2019-02-22T02:02:25.658Z,10.40
2019-02-22T02:04:54.084Z,10.40
2019-02-22T02:07:22.527Z,10.40
2019-02-22T02:09:51.318Z,10.40
2019-02-22T02:12:19.777Z,10.40
2019-02-22T02:14:48.487Z,10.40
2019-02-22T02:17:17.808Z,10.40
2019-02-22T02:19:46.714Z,10.50
2019-02-22T02:22:15.183Z,10.40
2019-02-22T02:24:43.670Z,10.40
2019-02-22T02:27:12.115Z,10.40
2019-02-22T02:29:40.543Z,10.40
2019-02-22T02:32:09.022Z,10.40
2019-02-22T02:34:37.481Z,10.40
2019-02-22T02:37:05.949Z,10.40
2019-02-22T02:39:34.454Z,10.40
2019-02-22T02:42:02.881Z,10.40
2019-02-22T02:44:31.339Z,10.40
2019-02-22T02:46:59.795Z,10.40
2019-02-22T02:49:28.239Z,10.40
2019-02-22T02:51:57.034Z,10.40
2019-02-22T02:54:25.492Z,10.40
2019-02-22T02:56:54.019Z,10.40
2019-02-22T02:59:22.446Z,10.50
2019-02-22T03:01:50.873Z,10.50
2019-02-22T03:04:19.320Z,10.50
2019-02-22T03:06:49.579Z,10.40
2019-02-22T03:09:18.328Z,10.40
2019-02-22T03:11:46.777Z,10.50
2019-02-22T03:14:15.213Z,10.60
2019-02-22T03:16:43.657Z,10.60
2019-02-22T03:19:12.118Z,10.60
2019-02-22T03:21:40.580Z,10.60
2019-02-22T03:24:09.029Z,10.60
2019-02-22T03:26:37.464Z,10.50
2019-02-22T03:29:05.921Z,10.50
2019-02-22T03:31:34.369Z,10.50
2019-02-22T03:34:02.889Z,10.50
2019-02-22T03:36:31.331Z,10.50
2019-02-22T03:38:59.770Z,10.40
2019-02-22T03:41:33.011Z,10.40
2019-02-22T03:43:58.413Z,10.40
2019-02-22T03:46:26.852Z,10.40
2019-02-22T03:48:55.317Z,10.40
2019-02-22T03:51:23.737Z,10.40
2019-02-22T03:53:53.461Z,10.40
2019-02-22T03:56:21.915Z,10.40
2019-02-22T03:58:50.358Z,10.40
2019-02-22T04:01:18.800Z,10.40
2019-02-22T04:03:47.633Z,10.40
2019-02-22T04:06:16.129Z,10.40
2019-02-22T04:08:44.611Z,10.40
2019-02-22T04:11:13.063Z,10.30
2019-02-22T04:13:41.520Z,10.40
2019-02-22T04:16:10.228Z,10.30
2019-02-22T04:18:38.703Z,10.30
2019-02-22T04:21:07.206Z,10.30
2019-02-22T04:23:35.666Z,10.30
2019-02-22T04:26:04.109Z,10.20
2019-02-22T04:28:32.576Z,10.20
2019-02-22T04:31:01.432Z,10.20
2019-02-22T04:33:29.893Z,10.20
2019-02-22T04:35:58.335Z,10.20
2019-02-22T04:38:26.776Z,10.20
2019-02-22T04:40:55.240Z,10.20
2019-02-22T04:43:23.722Z,10.20
2019-02-22T04:45:52.229Z,10.10
2019-02-22T04:48:20.684Z,10.10
2019-02-22T04:50:49.136Z,10.10
2019-02-22T04:53:17.572Z,10.10
2019-02-22T04:55:46.323Z,10.10
2019-02-22T04:58:14.806Z,10.10
2019-02-22T05:00:43.288Z,10.00
2019-02-22T05:03:11.751Z,10.00
2019-02-22T05:05:40.196Z,10.00
2019-02-22T05:08:08.646Z,10.00
2019-02-22T05:10:37.391Z,10.00
2019-02-22T05:13:06.185Z,10.00
2019-02-22T05:15:34.716Z,10.00
2019-02-22T05:18:03.213Z,9.90
2019-02-22T05:20:31.646Z,9.90
2019-02-22T05:23:03.893Z,9.90
2019-02-22T05:25:30.273Z,9.90
2019-02-22T05:27:59.009Z,9.90
2019-02-22T05:30:27.467Z,9.90
2019-02-22T05:32:55.904Z,9.90
2019-02-22T05:35:24.654Z,9.90
2019-02-22T05:37:53.077Z,9.90
2019-02-22T05:40:21.526Z,9.90
2019-02-22T05:42:50.019Z,9.80
2019-02-22T05:45:18.464Z,9.90
2019-02-22T05:47:46.910Z,9.90
2019-02-22T05:50:15.351Z,9.80
2019-02-22T05:52:43.793Z,9.80
2019-02-22T05:55:12.236Z,9.80
2019-02-22T05:57:41.036Z,9.70
2019-02-22T06:00:09.937Z,9.70
2019-02-22T06:02:38.436Z,9.70
2019-02-22T06:05:07.792Z,9.60
2019-02-22T06:07:36.263Z,9.60
2019-02-22T06:10:07.502Z,9.60
2019-02-22T06:12:35.987Z,9.60
2019-02-22T06:15:06.606Z,9.60
2019-02-22T06:17:35.066Z,9.60
2019-02-22T06:20:05.934Z,9.60
2019-02-22T06:22:34.458Z,9.60
2019-02-22T06:25:02.975Z,9.50
2019-02-22T06:27:31.630Z,9.50
2019-02-22T06:30:00.558Z,9.50
2019-02-22T06:32:29.059Z,9.50
2019-02-22T06:34:57.795Z,9.50
2019-02-22T06:37:26.257Z,9.50
2019-02-22T06:39:54.686Z,9.50
2019-02-22T06:42:23.843Z,9.40
2019-02-22T06:44:52.290Z,9.40
2019-02-22T06:47:22.785Z,9.40
2019-02-22T06:49:50.880Z,9.40
2019-02-22T06:52:19.306Z,9.40
2019-02-22T06:54:48.277Z,9.40
2019-02-22T06:57:16.702Z,9.40
2019-02-22T06:59:45.176Z,9.40
2019-02-22T07:02:13.642Z,9.40
2019-02-22T07:04:42.102Z,9.40
2019-02-22T07:07:10.557Z,9.30
2019-02-22T07:09:38.997Z,9.30
2019-02-22T07:12:09.404Z,9.30
2019-02-22T07:14:37.861Z,9.30
2019-02-22T07:17:07.019Z,9.30
2019-02-22T07:19:35.483Z,9.30
2019-02-22T07:22:03.922Z,9.30
2019-02-22T07:24:32.362Z,9.30
2019-02-22T07:27:00.800Z,9.30
2019-02-22T07:29:29.314Z,9.30
2019-02-22T07:32:05.214Z,9.30
2019-02-22T07:34:27.941Z,9.40
2019-02-22T07:36:56.671Z,9.30
2019-02-22T07:39:28.111Z,9.30
2019-02-22T07:41:55.419Z,9.30
2019-02-22T07:44:23.862Z,9.40
2019-02-22T07:46:52.315Z,9.40
2019-02-22T07:49:23.455Z,9.40
2019-02-22T07:51:51.968Z,9.40
2019-02-22T07:54:20.399Z,9.40
2019-02-22T07:56:48.874Z,9.40
2019-02-22T07:59:17.308Z,9.50
2019-02-22T08:01:47.931Z,9.50
2019-02-22T08:04:16.190Z,9.50
2019-02-22T08:06:44.722Z,9.50
2019-02-22T08:09:13.180Z,9.50
2019-02-22T08:11:42.046Z,9.50
2019-02-22T08:14:10.540Z,9.50
2019-02-22T08:16:38.983Z,9.60
2019-02-22T08:19:07.442Z,9.60
2019-02-22T08:21:35.879Z,9.60
2019-02-22T08:24:04.307Z,9.70
2019-02-22T08:26:32.739Z,9.80
2019-02-22T08:29:01.495Z,9.90
2019-02-22T08:31:30.030Z,10.00
2019-02-22T08:33:58.766Z,10.00
2019-02-22T08:36:27.548Z,10.10
2019-02-22T08:38:55.999Z,10.30
2019-02-22T08:41:24.520Z,10.40
2019-02-22T08:43:52.971Z,10.50
2019-02-22T08:46:21.414Z,10.60
2019-02-22T08:48:49.864Z,10.60
2019-02-22T08:51:18.313Z,10.70
2019-02-22T08:53:47.026Z,10.70
2019-02-22T08:56:15.508Z,10.70
2019-02-22T08:58:43.991Z,10.80
2019-02-22T09:01:12.423Z,10.90
2019-02-22T09:03:49.810Z,11.10
2019-02-22T09:06:11.184Z,11.30
2019-02-22T09:08:39.632Z,11.50
2019-02-22T09:11:08.369Z,11.70
2019-02-22T09:13:43.603Z,11.90
2019-02-22T09:16:07.032Z,12.00
2019-02-22T09:18:35.661Z,12.10
2019-02-22T09:21:04.097Z,12.10
2019-02-22T09:23:32.555Z,12.10
2019-02-22T09:26:01.312Z,12.10
2019-02-22T09:28:30.106Z,12.20
2019-02-22T09:30:58.527Z,12.30
2019-02-22T09:33:26.966Z,12.40
2019-02-22T09:35:55.423Z,12.50
2019-02-22T09:38:23.877Z,12.50
2019-02-22T09:40:52.328Z,12.50
2019-02-22T09:43:20.794Z,12.60
2019-02-22T09:45:49.299Z,12.80
2019-02-22T09:48:17.758Z,13.10
2019-02-22T09:50:46.462Z,13.40
2019-02-22T09:53:14.929Z,13.70
2019-02-22T09:55:43.350Z,13.90
2019-02-22T09:58:12.162Z,14.00
2019-02-22T10:00:40.964Z,14.20
2019-02-22T10:03:09.426Z,14.50
2019-02-22T10:05:37.862Z,14.40
2019-02-22T10:08:06.337Z,14.60
2019-02-22T10:10:34.785Z,14.80
2019-02-22T10:13:03.235Z,15.00
2019-02-22T10:15:31.926Z,15.10
2019-02-22T10:18:00.398Z,15.00
2019-02-22T10:20:28.864Z,15.10
2019-02-22T10:22:57.318Z,15.20
2019-02-22T10:25:25.746Z,15.60
2019-02-22T10:27:54.234Z,15.80
2019-02-22T10:30:22.682Z,16.00
2019-02-22T10:32:51.128Z,16.40
2019-02-22T10:35:19.592Z,16.70
2019-02-22T10:37:48.358Z,17.00
2019-02-22T10:40:16.808Z,17.10
2019-02-22T10:42:45.278Z,17.30
2019-02-22T10:45:13.880Z,17.70
2019-02-22T10:47:42.386Z,18.00
2019-02-22T10:50:11.274Z,18.30
2019-02-22T10:52:39.702Z,18.40
2019-02-22T10:55:11.333Z,18.40
2019-02-22T10:57:39.844Z,18.30
2019-02-22T11:00:13.919Z,18.00
2019-02-22T11:02:42.364Z,17.70
2019-02-22T11:05:11.654Z,17.60
2019-02-22T11:07:40.256Z,17.50
2019-02-22T11:10:15.886Z,17.60
2019-02-22T11:12:47.571Z,17.90
2019-02-22T11:15:16.307Z,18.30
2019-02-22T11:17:48.603Z,18.60
2019-02-22T11:20:17.075Z,18.90
2019-02-22T11:22:45.606Z,19.10
2019-02-22T11:25:16.554Z,18.80
2019-02-22T11:27:45.036Z,18.50
2019-02-22T11:30:14.924Z,18.40
2019-02-22T11:32:43.452Z,18.30
2019-02-22T11:35:11.874Z,18.20
2019-02-22T11:37:40.319Z,18.10
2019-02-22T11:40:10.963Z,17.90
2019-02-22T11:42:39.399Z,17.90
2019-02-22T11:45:09.487Z,17.80
2019-02-22T11:47:38.233Z,17.70
2019-02-22T11:50:11.742Z,17.40
2019-02-22T11:52:40.453Z,17.30
2019-02-22T11:55:10.748Z,17.20
2019-02-22T11:57:47.562Z,17.00
2019-02-22T12:00:18.258Z,16.80
2019-02-22T12:02:47.580Z,16.60
2019-02-22T12:05:16.052Z,16.40
2019-02-22T12:07:44.486Z,16.30
2019-02-22T12:10:13.605Z,16.20
2019-02-22T12:12:42.227Z,16.00
2019-02-22T12:15:13.167Z,15.80
2019-02-22T12:17:41.597Z,15.60
2019-02-22T12:20:11.373Z,15.50
2019-02-22T12:22:39.827Z,15.40
2019-02-22T12:25:10.591Z,15.20
2019-02-22T12:27:39.070Z,15.00
2019-02-22T12:30:14.768Z,14.80
2019-02-22T12:32:43.228Z,14.40
2019-02-22T12:35:12.057Z,14.20
2019-02-22T12:37:40.508Z,14.10
2019-02-22T12:40:10.798Z,14.00
2019-02-22T12:42:39.267Z,14.00
2019-02-22T12:45:10.197Z,14.00
2019-02-22T12:47:38.634Z,13.90
2019-02-22T12:50:10.156Z,14.00
2019-02-22T12:52:38.592Z,14.10
2019-02-22T12:55:11.046Z,14.20
2019-02-22T12:57:39.496Z,14.20
2019-02-22T13:00:13.680Z,14.30
2019-02-22T13:02:42.187Z,14.40
2019-02-22T13:05:13.911Z,14.40
2019-02-22T13:07:42.338Z,14.50
2019-02-22T13:10:10.947Z,14.50
2019-02-22T13:12:39.371Z,14.50
2019-02-22T13:15:14.096Z,14.50
2019-02-22T13:17:40.515Z,14.40
2019-02-22T13:20:09.890Z,14.30
2019-02-22T13:22:38.310Z,14.30
2019-02-22T13:25:09.113Z,14.20
2019-02-22T13:27:37.544Z,14.10
2019-02-22T13:30:12.456Z,14.20
2019-02-22T13:32:40.885Z,14.10
2019-02-22T13:35:10.928Z,14.10
2019-02-22T13:37:39.545Z,14.10
2019-02-22T13:40:14.142Z,14.10
2019-02-22T13:42:43.186Z,14.10
2019-02-22T13:45:13.117Z,14.00
2019-02-22T13:47:41.654Z,13.90
2019-02-22T13:50:12.839Z,13.80
2019-02-22T13:52:41.551Z,13.80
2019-02-22T13:55:10.714Z,13.80
2019-02-22T13:57:39.155Z,13.90
2019-02-22T14:00:16.341Z,13.90
2019-02-22T14:02:44.765Z,13.80
2019-02-22T14:05:13.741Z,13.90
2019-02-22T14:07:56.199Z,13.90
2019-02-22T14:10:25.741Z,14.00
2019-02-22T14:12:54.262Z,14.00
2019-02-22T14:15:22.769Z,14.00
2019-02-22T14:17:51.258Z,14.10
2019-02-22T14:20:19.775Z,14.30
2019-02-22T14:22:50.283Z,14.30
2019-02-22T14:25:18.708Z,14.40
2019-02-22T14:27:47.158Z,14.30
2019-02-22T14:30:17.310Z,14.10
2019-02-22T14:32:46.469Z,14.00
2019-02-22T14:35:15.230Z,13.90
2019-02-22T14:37:43.851Z,13.80
2019-02-22T14:40:13.711Z,13.60
2019-02-22T14:42:42.156Z,13.40
2019-02-22T14:45:11.821Z,13.30
2019-02-22T14:47:40.253Z,13.30
2019-02-22T14:50:14.669Z,13.30
2019-02-22T14:52:43.268Z,13.30
2019-02-22T14:55:11.686Z,13.20
2019-02-22T14:57:40.132Z,13.30
2019-02-22T15:00:12.846Z,13.40
2019-02-22T15:02:41.297Z,13.40
2019-02-22T15:05:11.737Z,13.50
2019-02-22T15:07:40.179Z,13.40
2019-02-22T15:10:10.045Z,13.40
2019-02-22T15:12:38.520Z,13.30
2019-02-22T15:15:17.150Z,13.30
2019-02-22T15:17:52.689Z,13.30
2019-02-22T15:20:21.119Z,13.20
2019-02-22T15:22:49.557Z,13.20
2019-02-22T15:25:19.238Z,13.10
2019-02-22T15:27:47.679Z,13.10
2019-02-22T15:30:17.339Z,13.10
2019-02-22T15:32:45.790Z,13.10
2019-02-22T15:35:18.322Z,13.10
2019-02-22T15:37:47.125Z,13.20
2019-02-22T15:40:15.936Z,13.20
2019-02-22T15:42:44.362Z,13.20
2019-02-22T15:45:18.085Z,13.20
2019-02-22T15:47:48.618Z,13.20
2019-02-22T15:50:19.472Z,13.20
2019-02-22T15:52:49.369Z,13.30
2019-02-22T15:55:18.082Z,13.30
2019-02-22T15:57:46.517Z,13.30
2019-02-22T16:00:29.525Z,13.20
2019-02-22T16:02:57.939Z,13.20
2019-02-22T16:05:30.957Z,13.10
2019-02-22T16:07:59.383Z,13.00
2019-02-22T16:10:27.804Z,12.90
2019-02-22T16:12:56.224Z,12.80
2019-02-22T16:15:25.043Z,12.70
2019-02-22T16:17:53.541Z,12.60
2019-02-22T16:20:22.226Z,12.40
2019-02-22T16:22:51.586Z,12.20
2019-02-22T16:25:20.534Z,12.10
2019-02-22T16:27:49.015Z,12.10
2019-02-22T16:30:19.754Z,12.10
2019-02-22T16:32:48.648Z,11.90
2019-02-22T16:35:17.051Z,11.70
2019-02-22T16:37:45.467Z,11.50
2019-02-22T16:40:13.933Z,11.30
2019-02-22T16:42:42.432Z,11.00
2019-02-22T16:45:14.237Z,10.70
2019-02-22T16:47:42.649Z,10.50
2019-02-22T16:50:12.728Z,10.30
2019-02-22T16:52:41.140Z,10.20
2019-02-22T16:55:15.187Z,10.20
2019-02-22T16:57:43.622Z,10.10
2019-02-22T17:00:14.900Z,9.90
2019-02-22T17:02:43.587Z,9.80
2019-02-22T17:05:14.634Z,9.70
2019-02-22T17:07:43.055Z,9.60
2019-02-22T17:10:12.032Z,9.50
2019-02-22T17:12:40.455Z,9.40
2019-02-22T17:15:13.751Z,9.30
2019-02-22T17:17:42.390Z,9.00
2019-02-22T17:20:13.304Z,8.80
2019-02-22T17:22:41.720Z,8.70
2019-02-22T17:25:21.733Z,8.50
2019-02-22T17:27:50.511Z,8.50
2019-02-22T17:30:23.497Z,8.40
2019-02-22T17:32:51.987Z,8.30
2019-02-22T17:35:20.390Z,8.30
2019-02-22T17:37:48.823Z,8.20
2019-02-22T17:40:22.971Z,8.20
2019-02-22T17:42:51.392Z,8.10
2019-02-22T17:45:19.803Z,8.00
2019-02-22T17:47:48.217Z,7.90
2019-02-22T17:50:16.829Z,7.80
2019-02-22T17:52:45.643Z,7.70
2019-02-22T17:55:14.055Z,7.50
2019-02-22T17:57:42.489Z,7.30
2019-02-22T18:00:15.253Z,7.30
2019-02-22T18:02:43.658Z,7.20
2019-02-22T18:05:12.425Z,7.10
2019-02-22T18:07:40.821Z,7.10
2019-02-22T18:10:11.050Z,7.00
2019-02-22T18:12:39.516Z,6.90
2019-02-22T18:15:10.851Z,6.90
2019-02-22T18:17:40.090Z,6.80
2019-02-22T18:20:09.243Z,6.80
2019-02-22T18:22:37.670Z,6.70
2019-02-22T18:25:08.242Z,6.70
2019-02-22T18:27:36.641Z,6.60
2019-02-22T18:30:10.664Z,6.60
2019-02-22T18:32:39.072Z,6.50
2019-02-22T18:35:08.225Z,6.40
2019-02-22T18:37:36.651Z,6.40
2019-02-22T18:40:10.649Z,6.40
2019-02-22T18:42:39.049Z,6.30
2019-02-22T18:45:09.214Z,6.30
2019-02-22T18:47:37.627Z,6.20
2019-02-22T18:50:09.103Z,6.10
2019-02-22T18:52:37.521Z,6.10
2019-02-22T18:55:08.389Z,6.10
2019-02-22T18:57:36.794Z,6.00
2019-02-22T19:00:08.287Z,5.90
2019-02-22T19:02:36.703Z,5.80
2019-02-22T19:05:07.062Z,5.70
2019-02-22T19:07:35.477Z,5.60
2019-02-22T19:10:06.404Z,5.60
2019-02-22T19:12:34.802Z,5.50
2019-02-22T19:15:03.703Z,5.40
2019-02-22T19:17:32.444Z,5.30
2019-02-22T19:20:00.916Z,5.30
2019-02-22T19:22:29.327Z,5.30
2019-02-22T19:24:57.738Z,5.20
2019-02-22T19:27:26.219Z,5.10
2019-02-22T19:29:54.765Z,5.10
2019-02-22T19:32:23.341Z,5.10
2019-02-22T19:34:51.781Z,5.00
2019-02-22T19:37:20.289Z,5.00
2019-02-22T19:39:48.702Z,5.00
2019-02-22T19:42:17.131Z,4.90
2019-02-22T19:44:45.572Z,4.80
2019-02-22T19:47:14.030Z,4.80
2019-02-22T19:49:42.816Z,4.70
2019-02-22T19:52:11.235Z,4.60
2019-02-22T19:54:39.685Z,4.60
2019-02-22T19:57:08.140Z,4.50
2019-02-22T19:59:36.553Z,4.50
2019-02-22T20:02:05.098Z,4.40
2019-02-22T20:04:33.514Z,4.40
2019-02-22T20:07:01.937Z,4.30
2019-02-22T20:09:30.346Z,4.30
2019-02-22T20:11:58.775Z,4.20
2019-02-22T20:14:27.477Z,4.10
2019-02-22T20:16:55.901Z,4.00
2019-02-22T20:19:24.662Z,4.00
2019-02-22T20:21:53.059Z,3.90
2019-02-22T20:24:21.477Z,3.90
2019-02-22T20:26:49.899Z,3.90
2019-02-22T20:29:18.315Z,3.90
2019-02-22T20:31:46.779Z,3.80
2019-02-22T20:34:15.516Z,3.70
2019-02-22T20:36:44.239Z,3.80
2019-02-22T20:39:12.903Z,3.70
2019-02-22T20:41:41.321Z,3.60
2019-02-22T20:44:09.739Z,3.50
2019-02-22T20:46:38.269Z,3.50
2019-02-22T20:49:07.027Z,3.50
2019-02-22T20:51:35.490Z,3.50
2019-02-22T20:54:03.908Z,3.40
2019-02-22T20:56:32.324Z,3.40
2019-02-22T20:59:08.978Z,3.30
2019-02-22T21:01:37.439Z,3.20
2019-02-22T21:04:05.857Z,3.10
2019-02-22T21:06:34.315Z,3.10
2019-02-22T21:09:04.064Z,3.10
2019-02-22T21:11:32.757Z,3.10
2019-02-22T21:14:01.178Z,3.00
2019-02-22T21:16:29.595Z,3.00
2019-02-22T21:18:58.017Z,3.00
2019-02-22T21:21:26.412Z,3.00
2019-02-22T21:23:54.840Z,2.90
2019-02-22T21:26:23.258Z,2.90
2019-02-22T21:28:51.665Z,2.90
2019-02-22T21:31:20.093Z,2.80
2019-02-22T21:33:48.501Z,2.80
2019-02-22T21:36:17.248Z,2.80
2019-02-22T21:38:45.655Z,2.80
2019-02-22T21:41:16.277Z,2.70
2019-02-22T21:43:44.271Z,2.60
2019-02-22T21:46:12.685Z,2.50
2019-02-22T21:48:41.109Z,2.40
2019-02-22T21:51:09.548Z,2.30
2019-02-22T21:53:37.950Z,2.30
2019-02-22T21:56:06.369Z,2.30
2019-02-22T21:58:34.796Z,2.30
2019-02-22T22:01:03.231Z,2.30
2019-02-22T22:03:31.639Z,2.20
2019-02-22T22:06:00.055Z,2.20
2019-02-22T22:08:28.549Z,2.20
2019-02-22T22:10:57.000Z,2.20
2019-02-22T22:13:25.779Z,2.20
2019-02-22T22:15:54.252Z,2.20
2019-02-22T22:18:22.698Z,2.30
2019-02-22T22:20:51.156Z,2.30
2019-02-22T22:23:19.920Z,2.20
2019-02-22T22:25:48.437Z,2.20
2019-02-22T22:28:16.888Z,2.10
2019-02-22T22:30:45.383Z,2.00
2019-02-22T22:33:13.850Z,2.00
2019-02-22T22:35:42.330Z,1.90
2019-02-22T22:38:10.790Z,1.90
2019-02-22T22:40:39.274Z,1.80
2019-02-22T22:43:07.761Z,1.80
2019-02-22T22:45:36.273Z,1.70
2019-02-22T22:48:04.867Z,1.70
2019-02-22T22:50:33.324Z,1.60
2019-02-22T22:53:01.776Z,1.60
2019-02-22T22:55:30.257Z,1.60
2019-02-22T22:57:58.693Z,1.70
2019-02-22T23:00:35.658Z,1.70
2019-02-22T23:03:04.572Z,1.60
2019-02-22T23:05:33.907Z,1.60
2019-02-22T23:08:02.348Z,1.60
2019-02-22T23:10:31.159Z,1.60
2019-02-22T23:12:59.600Z,1.60
2019-02-22T23:15:28.058Z,1.60
2019-02-22T23:17:56.526Z,1.70
2019-02-22T23:20:24.986Z,1.60
2019-02-22T23:22:53.431Z,1.60
2019-02-22T23:25:22.242Z,1.60
2019-02-22T23:27:50.702Z,1.40
2019-02-22T23:30:19.152Z,1.50
2019-02-22T23:32:47.605Z,1.50
2019-02-22T23:35:16.079Z,1.50
2019-02-22T23:37:44.540Z,1.50
2019-02-22T23:40:12.990Z,1.40
2019-02-22T23:42:41.436Z,1.50
2019-02-22T23:45:09.956Z,1.50
2019-02-22T23:47:38.421Z,1.50
2019-02-22T23:50:08.100Z,1.40
2019-02-22T23:52:36.556Z,1.50
2019-02-22T23:55:05.558Z,1.60
2019-02-22T23:57:34.326Z,1.70
